createdAt,value
2018-06-21T04:19:51.423Z,20
2018-06-21T04:20:11.605Z,20
2018-06-21T04:20:31.797Z,20
2018-06-21T04:20:51.960Z,20
2018-06-21T04:21:12.174Z,20
2018-06-21T04:33:39.063Z,20
2018-06-21T04:33:59.337Z,20
2018-06-21T04:40:47.954Z,20
2018-06-21T04:45:43.891Z,20
2018-06-21T04:49:25.572Z,25
2018-06-21T04:52:44.631Z,25
2018-06-21T04:59:29.843Z,25
2018-06-21T05:07:56.704Z,25
2018-06-21T05:48:30.382Z,25
2018-06-21T05:48:50.675Z,25
2018-06-21T05:50:10.255Z,25
2018-06-21T05:50:30.570Z,25
2018-06-21T05:51:42.680Z,25
2018-06-21T05:52:02.982Z,25
2018-06-21T05:52:23.311Z,25
2018-06-21T05:52:43.626Z,25
2018-06-21T05:53:04.662Z,25
2018-06-21T05:53:26.211Z,25
2018-06-21T05:53:46.733Z,25
2018-06-21T05:54:07.118Z,25
2018-06-21T05:54:27.494Z,25
2018-06-21T05:54:47.849Z,25
2018-06-21T05:55:10.010Z,25
2018-06-21T05:55:30.463Z,25
2018-06-21T05:55:50.758Z,25
2018-06-21T05:56:11.146Z,25
2018-06-21T05:56:31.525Z,25
2018-06-21T05:56:51.771Z,25
2018-06-21T05:57:11.982Z,25
2018-06-21T05:57:32.180Z,25
2018-06-21T05:57:52.404Z,25
2018-06-21T05:58:13.579Z,25
2018-06-21T05:58:33.844Z,25
2018-06-21T05:58:54.138Z,25
2018-06-21T05:59:14.593Z,25
2018-06-21T05:59:34.979Z,25
2018-06-21T05:59:56.170Z,25
2018-06-21T06:00:16.702Z,25
2018-06-21T06:00:37.005Z,25
2018-06-21T06:00:57.235Z,25
2018-06-21T06:01:17.476Z,25
2018-06-21T06:01:37.746Z,25
2018-06-21T06:01:58.113Z,25
2018-06-21T06:02:18.335Z,25
2018-06-21T06:02:38.671Z,25
2018-06-21T06:02:59.536Z,25
2018-06-21T06:03:19.838Z,25
2018-06-21T06:03:40.111Z,25
2018-06-21T06:04:00.384Z,25
2018-06-21T06:04:20.816Z,25
2018-06-21T06:04:40.982Z,25
2018-06-21T06:05:02.132Z,25
2018-06-21T06:05:22.308Z,25
2018-06-21T06:05:42.589Z,25
2018-06-21T06:06:02.876Z,25
2018-06-21T06:06:23.144Z,25
2018-06-21T06:06:43.278Z,25
2018-06-21T06:07:03.495Z,25
2018-06-21T06:07:23.711Z,25
2018-06-21T06:07:44.114Z,25
2018-06-21T06:08:04.405Z,25
2018-06-21T06:08:24.727Z,25
2018-06-21T06:08:44.945Z,25
2018-06-21T06:09:05.200Z,25
2018-06-21T06:09:25.570Z,25
2018-06-21T06:09:45.810Z,25
2018-06-21T06:10:06.258Z,25
2018-06-21T06:10:26.549Z,25
2018-06-21T06:10:47.545Z,25
2018-06-21T06:11:07.821Z,25
2018-06-21T06:11:28.069Z,25
2018-06-21T06:11:48.560Z,25
2018-06-21T06:12:08.865Z,25
2018-06-21T06:12:29.116Z,25
2018-06-21T06:12:50.075Z,25
2018-06-21T06:13:10.402Z,25
2018-06-21T06:13:30.645Z,25
2018-06-21T06:13:50.847Z,25
2018-06-21T06:14:11.210Z,25
2018-06-21T06:14:31.631Z,25
2018-06-21T06:14:51.895Z,25
2018-06-21T06:15:12.112Z,25
2018-06-21T06:15:32.457Z,25
2018-06-21T06:15:53.089Z,25
2018-06-21T06:16:13.295Z,25
2018-06-21T06:16:33.523Z,25
2018-06-21T06:16:53.960Z,25
2018-06-21T06:17:14.262Z,25
2018-06-21T06:17:34.637Z,25
2018-06-21T06:17:54.903Z,25
2018-06-21T06:18:15.980Z,25
2018-06-21T06:18:36.265Z,25
2018-06-21T06:18:56.924Z,25
2018-06-21T06:19:17.096Z,25
2018-06-21T06:19:37.568Z,25
2018-06-21T06:19:59.597Z,25
2018-06-21T06:20:19.807Z,25
2018-06-21T06:20:40.160Z,25
2018-06-21T06:21:00.546Z,25
2018-06-21T06:21:20.853Z,25
2018-06-21T06:21:41.086Z,25
2018-06-21T06:22:01.419Z,25
2018-06-21T06:22:21.623Z,25
2018-06-21T06:22:41.836Z,25
2018-06-21T06:23:02.116Z,25
2018-06-21T06:23:24.162Z,25
2018-06-21T06:23:44.386Z,25
2018-06-21T06:24:04.569Z,25
2018-06-21T06:24:24.767Z,25
2018-06-21T06:24:44.962Z,25
2018-06-21T06:25:05.359Z,25
2018-06-21T06:25:28.539Z,25
2018-06-21T06:25:49.768Z,25
2018-06-21T06:26:10.087Z,25
2018-06-21T06:26:30.411Z,25
2018-06-21T06:26:50.637Z,25
2018-06-21T06:27:10.915Z,25
2018-06-21T06:27:31.137Z,25
2018-06-21T06:27:52.253Z,25
2018-06-21T06:28:12.501Z,25
2018-06-21T06:28:32.793Z,25
2018-06-21T06:28:53.153Z,25
2018-06-21T06:29:13.496Z,25
2018-06-21T06:29:33.941Z,25
2018-06-21T06:29:54.219Z,25
2018-06-21T06:30:14.415Z,25
2018-06-21T06:30:34.615Z,25
2018-06-21T06:30:54.779Z,25
2018-06-21T06:31:15.103Z,25
2018-06-21T06:31:35.301Z,25
2018-06-21T06:31:55.501Z,25
2018-06-21T06:32:15.700Z,25
2018-06-21T06:32:36.567Z,25
2018-06-21T06:32:57.436Z,25
2018-06-21T06:33:17.727Z,25
2018-06-21T06:33:38.091Z,25
2018-06-21T06:33:58.591Z,25
2018-06-21T06:34:18.967Z,25
2018-06-21T06:34:40.213Z,25
2018-06-21T06:35:00.667Z,30
2018-06-21T06:35:21.628Z,30
2018-06-21T06:35:42.690Z,30
2018-06-21T06:36:03.056Z,30
2018-06-21T06:36:23.356Z,30
2018-06-21T06:36:43.749Z,30
2018-06-21T06:37:04.033Z,30
2018-06-21T06:37:24.322Z,30
2018-06-21T06:37:45.017Z,30
2018-06-21T06:38:05.203Z,30
2018-06-21T06:38:25.474Z,30
2018-06-21T06:38:45.777Z,30
2018-06-21T06:39:06.037Z,30
2018-06-21T06:39:26.279Z,30
2018-06-21T06:39:46.478Z,30
2018-06-21T06:40:07.552Z,30
2018-06-21T06:40:27.766Z,30
2018-06-21T06:40:48.112Z,30
2018-06-21T06:41:09.710Z,30
2018-06-21T06:41:29.929Z,30
2018-06-21T06:41:50.171Z,30
2018-06-21T06:42:10.368Z,30
2018-06-21T06:42:30.599Z,30
2018-06-21T06:42:50.819Z,30
2018-06-21T06:43:11.023Z,30
2018-06-21T06:43:31.179Z,30
2018-06-21T06:43:51.476Z,30
2018-06-21T06:44:12.574Z,30
2018-06-21T06:44:34.209Z,30
2018-06-21T06:44:55.208Z,30
2018-06-21T06:45:15.457Z,30
2018-06-21T06:45:35.783Z,30
2018-06-21T06:45:56.054Z,30
2018-06-21T06:46:16.307Z,30
2018-06-21T06:46:37.149Z,30
2018-06-21T06:46:57.511Z,30
2018-06-21T06:47:18.572Z,30
2018-06-21T06:47:38.786Z,30
2018-06-21T06:47:58.981Z,30
2018-06-21T06:48:19.156Z,35
2018-06-21T06:48:39.993Z,35
2018-06-21T06:49:00.645Z,30
2018-06-21T06:49:20.794Z,30
2018-06-21T06:49:41.079Z,30
2018-06-21T06:50:02.100Z,30
2018-06-21T06:50:22.271Z,30
2018-06-21T06:50:42.435Z,30
2018-06-21T06:51:02.610Z,25
2018-06-21T06:51:22.791Z,25
2018-06-21T06:51:42.961Z,25
2018-06-21T06:52:03.245Z,25
2018-06-21T06:52:23.571Z,25
2018-06-21T06:52:43.787Z,30
2018-06-21T06:53:03.949Z,30
2018-06-21T06:53:24.718Z,30
2018-06-21T06:53:44.935Z,30
2018-06-21T06:54:05.074Z,30
2018-06-21T06:54:25.312Z,30
2018-06-21T06:54:45.497Z,25
2018-06-21T06:55:05.597Z,30
2018-06-21T06:55:25.744Z,30
2018-06-21T06:55:45.898Z,30
2018-06-21T06:56:06.035Z,30
2018-06-21T06:56:26.181Z,30
2018-06-21T06:56:46.356Z,30
2018-06-21T06:57:06.601Z,30
2018-06-21T06:57:26.764Z,30
2018-06-21T06:57:46.954Z,30
2018-06-21T06:58:07.143Z,30
2018-06-21T06:58:27.313Z,30
2018-06-21T06:58:47.475Z,30
2018-06-21T06:59:07.644Z,30
2018-06-21T06:59:27.803Z,30
2018-06-21T06:59:48.975Z,30
2018-06-21T07:00:10.667Z,30
2018-06-21T07:00:32.494Z,30
2018-06-21T07:00:54.905Z,30
2018-06-21T07:01:18.089Z,30
2018-06-21T07:01:39.565Z,30
2018-06-21T07:02:01.459Z,30
2018-06-21T07:02:23.149Z,30
2018-06-21T07:02:44.575Z,30
2018-06-21T07:03:05.801Z,30
2018-06-21T07:03:28.271Z,30
2018-06-21T07:03:49.689Z,30
2018-06-21T07:04:11.787Z,30
2018-06-21T07:04:32.036Z,30
2018-06-21T07:04:52.229Z,30
2018-06-21T07:05:12.382Z,30
2018-06-21T07:05:32.552Z,30
2018-06-21T07:05:52.709Z,30
2018-06-21T07:06:13.003Z,30
2018-06-21T07:06:33.211Z,30
2018-06-21T07:06:53.394Z,30
2018-06-21T07:07:13.611Z,30
2018-06-21T07:07:33.809Z,30
2018-06-21T07:07:54.010Z,30
2018-06-21T07:08:14.347Z,30
2018-06-21T07:08:35.202Z,30
2018-06-21T07:08:55.891Z,30
2018-06-21T07:09:16.064Z,30
2018-06-21T07:09:36.232Z,30
2018-06-21T07:09:56.441Z,30
2018-06-21T07:10:16.600Z,30
2018-06-21T07:10:36.762Z,30
2018-06-21T07:10:56.919Z,30
2018-06-21T07:11:17.087Z,30
2018-06-21T07:11:37.332Z,30
2018-06-21T07:11:57.491Z,30
2018-06-21T07:12:17.661Z,30
2018-06-21T07:12:37.796Z,30
2018-06-21T07:12:57.944Z,30
2018-06-21T07:13:18.097Z,30
2018-06-21T07:13:38.251Z,30
2018-06-21T07:13:58.517Z,30
2018-06-21T07:14:18.856Z,30
2018-06-21T07:14:39.016Z,30
2018-06-21T07:14:59.303Z,30
2018-06-21T07:15:19.477Z,30
2018-06-21T07:15:39.675Z,30
2018-06-21T07:15:59.879Z,30
2018-06-21T07:16:20.167Z,30
2018-06-21T07:16:40.401Z,30
2018-06-21T07:17:00.627Z,30
2018-06-21T07:17:20.941Z,30
2018-06-21T07:17:41.176Z,30
2018-06-21T07:18:01.347Z,30
2018-06-21T07:18:21.724Z,30
2018-06-21T07:18:41.908Z,30
2018-06-21T07:19:02.186Z,30
2018-06-21T07:19:22.348Z,30
2018-06-21T07:19:42.637Z,30
2018-06-21T07:20:02.857Z,30
2018-06-21T07:20:22.994Z,30
2018-06-21T07:20:43.197Z,30
2018-06-21T07:21:03.386Z,30
2018-06-21T07:21:23.566Z,30
2018-06-21T07:21:43.739Z,30
2018-06-21T07:22:03.925Z,30
2018-06-21T07:22:24.156Z,30
2018-06-21T07:22:44.304Z,30
2018-06-21T07:23:04.473Z,35
2018-06-21T07:23:24.635Z,35
2018-06-21T07:23:44.814Z,35
2018-06-21T07:24:04.986Z,35
2018-06-21T07:24:25.124Z,35
2018-06-21T07:24:45.312Z,30
2018-06-21T07:25:05.496Z,30
2018-06-21T07:25:25.700Z,30
2018-06-21T07:25:45.857Z,30
2018-06-21T07:26:06.014Z,30
2018-06-21T07:26:26.182Z,30
2018-06-21T07:26:46.440Z,30
2018-06-21T07:27:06.619Z,30
2018-06-21T07:27:26.757Z,30
2018-06-21T07:27:46.912Z,30
2018-06-21T07:28:07.135Z,30
2018-06-21T07:28:27.321Z,30
2018-06-21T07:28:47.461Z,30
2018-06-21T07:29:07.631Z,30
2018-06-21T07:29:27.782Z,30
2018-06-21T07:29:47.935Z,30
2018-06-21T07:30:08.092Z,30
2018-06-21T07:30:28.230Z,30
2018-06-21T07:30:48.383Z,30
2018-06-21T07:31:08.502Z,30
2018-06-21T07:31:28.669Z,30
2018-06-21T07:31:48.817Z,30
2018-06-21T07:32:09.072Z,30
2018-06-21T07:32:29.227Z,30
2018-06-21T07:32:49.390Z,30
2018-06-21T07:33:09.590Z,30
2018-06-21T07:33:29.798Z,30
2018-06-21T07:33:49.898Z,30
2018-06-21T07:34:10.060Z,30
2018-06-21T07:34:30.287Z,30
2018-06-21T07:34:50.442Z,30
2018-06-21T07:35:10.650Z,30
2018-06-21T07:35:30.799Z,30
2018-06-21T07:35:50.960Z,30
2018-06-21T07:36:11.126Z,30
2018-06-21T07:36:31.316Z,30
2018-06-21T07:36:51.531Z,30
2018-06-21T07:37:11.717Z,30
2018-06-21T07:37:32.654Z,30
2018-06-21T07:37:52.808Z,30
2018-06-21T07:38:12.966Z,30
2018-06-21T07:38:33.117Z,30
2018-06-21T07:38:53.376Z,30
2018-06-21T07:39:13.762Z,30
2018-06-21T07:39:33.866Z,30
2018-06-21T07:39:54.027Z,30
2018-06-21T07:40:14.198Z,30
2018-06-21T07:40:34.447Z,30
2018-06-21T07:40:54.656Z,30
2018-06-21T07:41:14.820Z,30
2018-06-21T07:41:34.995Z,30
2018-06-21T07:41:55.147Z,30
2018-06-21T07:42:15.315Z,30
2018-06-21T07:42:35.524Z,30
2018-06-21T07:42:55.699Z,30
2018-06-21T07:43:15.878Z,30
2018-06-21T07:43:36.056Z,30
2018-06-21T07:43:56.245Z,30
2018-06-21T07:44:16.502Z,30
2018-06-21T07:44:36.667Z,30
2018-06-21T07:44:56.837Z,30
2018-06-21T07:45:17.028Z,35
2018-06-21T07:45:37.192Z,30
2018-06-21T07:45:57.356Z,35
2018-06-21T07:46:17.511Z,35
2018-06-21T07:46:37.676Z,35
2018-06-21T07:46:57.909Z,35
2018-06-21T07:47:18.026Z,35
2018-06-21T07:47:38.738Z,35
2018-06-21T07:47:58.960Z,35
2018-06-21T07:48:19.302Z,35
2018-06-21T07:48:39.483Z,35
2018-06-21T07:48:59.706Z,35
2018-06-21T07:49:19.855Z,35
2018-06-21T07:49:40.080Z,35
2018-06-21T07:50:00.312Z,40
2018-06-21T07:50:20.454Z,35
2018-06-21T07:50:40.677Z,35
2018-06-21T07:51:00.832Z,35
2018-06-21T07:51:21.006Z,35
2018-06-21T07:51:41.156Z,30
2018-06-21T07:52:01.331Z,25
2018-06-21T07:52:21.505Z,25
2018-06-21T07:52:41.657Z,25
2018-06-21T07:53:01.837Z,25
2018-06-21T07:53:21.973Z,25
2018-06-21T07:53:42.139Z,25
2018-06-21T07:54:02.302Z,25
2018-06-21T07:54:22.468Z,25
2018-06-21T07:54:42.750Z,35
2018-06-21T07:55:03.012Z,35
2018-06-21T07:55:23.227Z,35
2018-06-21T07:55:43.484Z,35
2018-06-21T07:56:03.742Z,35
2018-06-21T07:56:23.907Z,40
2018-06-21T07:56:44.085Z,40
2018-06-21T07:57:04.313Z,40
2018-06-21T07:57:24.509Z,40
2018-06-21T07:57:45.630Z,40
2018-06-21T07:58:05.774Z,40
2018-06-21T07:58:26.226Z,35
2018-06-21T07:58:46.410Z,35
2018-06-21T07:59:06.591Z,30
2018-06-21T07:59:26.769Z,40
2018-06-21T07:59:46.943Z,40
2018-06-21T08:00:07.169Z,35
2018-06-21T08:00:27.329Z,40
2018-06-21T08:00:47.491Z,40
2018-06-21T08:01:07.698Z,35
2018-06-21T08:01:27.860Z,40
2018-06-21T08:01:48.078Z,30
2018-06-21T08:02:08.243Z,30
2018-06-21T08:02:28.401Z,35
2018-06-21T08:02:49.251Z,35
2018-06-21T08:03:09.476Z,35
2018-06-21T08:03:29.647Z,35
2018-06-21T08:03:49.795Z,30
2018-06-21T08:04:09.966Z,30
2018-06-21T08:04:30.114Z,30
2018-06-21T08:04:50.260Z,30
2018-06-21T08:05:10.498Z,30
2018-06-21T08:05:30.633Z,30
2018-06-21T08:05:50.779Z,30
2018-06-21T08:06:11.095Z,25
2018-06-21T08:06:31.256Z,30
2018-06-21T08:06:51.422Z,40
2018-06-21T08:07:11.583Z,35
2018-06-21T08:07:31.747Z,35
2018-06-21T08:07:51.954Z,40
2018-06-21T08:08:12.114Z,35
2018-06-21T08:08:32.275Z,35
2018-06-21T08:08:52.463Z,40
2018-06-21T08:09:12.679Z,40
2018-06-21T08:09:32.798Z,40
2018-06-21T08:09:53.008Z,40
2018-06-21T08:10:13.178Z,35
2018-06-21T08:10:33.338Z,30
2018-06-21T08:10:53.521Z,25
2018-06-21T08:11:13.680Z,40
2018-06-21T08:11:33.911Z,35
2018-06-21T08:11:54.093Z,35
2018-06-21T08:12:14.219Z,35
2018-06-21T08:12:34.388Z,30
2018-06-21T08:12:54.677Z,40
2018-06-21T08:13:14.785Z,40
2018-06-21T08:13:35.052Z,40
2018-06-21T08:13:55.278Z,40
2018-06-21T08:14:15.506Z,40
2018-06-21T08:14:35.670Z,40
2018-06-21T08:14:55.867Z,40
2018-06-21T08:15:16.065Z,45
2018-06-21T08:15:36.257Z,40
2018-06-21T08:15:56.428Z,40
2018-06-21T08:16:16.592Z,40
2018-06-21T08:16:36.757Z,40
2018-06-21T08:16:57.050Z,40
2018-06-21T08:17:17.404Z,40
2018-06-21T08:17:37.679Z,40
2018-06-21T08:17:57.947Z,35
2018-06-21T08:18:18.168Z,35
2018-06-21T08:18:38.365Z,35
2018-06-21T08:18:58.580Z,30
2018-06-21T08:19:18.776Z,40
2018-06-21T08:19:39.003Z,40
2018-06-21T08:19:59.128Z,40
2018-06-21T08:20:19.442Z,40
2018-06-21T08:20:39.622Z,40
2018-06-21T08:20:59.807Z,40
2018-06-21T08:21:20.006Z,45
2018-06-21T08:21:40.166Z,45
2018-06-21T08:22:00.443Z,45
2018-06-21T08:22:20.593Z,45
2018-06-21T08:22:40.778Z,45
2018-06-21T08:23:01.078Z,35
2018-06-21T08:23:21.339Z,35
2018-06-21T08:23:41.537Z,35
2018-06-21T08:24:01.735Z,35
2018-06-21T08:24:21.990Z,35
2018-06-21T08:24:42.117Z,35
2018-06-21T08:25:02.349Z,35
2018-06-21T08:25:22.536Z,35
2018-06-21T08:25:42.882Z,35
2018-06-21T08:26:03.049Z,35
2018-06-21T08:26:23.272Z,45
2018-06-21T08:26:43.522Z,40
2018-06-21T08:27:03.755Z,35
2018-06-21T08:27:23.972Z,40
2018-06-21T08:27:44.147Z,45
2018-06-21T08:28:04.339Z,50
2018-06-21T08:28:24.527Z,45
2018-06-21T08:28:44.720Z,40
2018-06-21T08:29:04.904Z,35
2018-06-21T08:29:25.138Z,35
2018-06-21T08:29:45.352Z,35
2018-06-21T08:30:05.585Z,35
2018-06-21T08:30:25.831Z,35
2018-06-21T08:30:46.080Z,35
2018-06-21T08:31:06.231Z,35
2018-06-21T08:31:26.484Z,35
2018-06-21T08:31:46.668Z,35
2018-06-21T08:32:06.995Z,35
2018-06-21T08:32:27.971Z,35
2018-06-21T08:32:48.270Z,35
2018-06-21T08:33:08.447Z,40
2018-06-21T08:33:28.607Z,40
2018-06-21T08:33:48.756Z,50
2018-06-21T08:34:08.964Z,45
2018-06-21T08:34:29.203Z,45
2018-06-21T08:34:49.395Z,40
2018-06-21T08:35:09.575Z,50
2018-06-21T08:35:30.764Z,45
2018-06-21T08:35:50.994Z,40
2018-06-21T08:36:11.168Z,40
2018-06-21T08:36:31.316Z,40
2018-06-21T08:36:51.587Z,40
2018-06-21T08:37:11.786Z,40
2018-06-21T08:37:31.968Z,40
2018-06-21T08:37:52.187Z,45
2018-06-21T08:38:12.357Z,45
2018-06-21T08:38:32.524Z,50
2018-06-21T08:38:52.754Z,50
2018-06-21T08:39:12.969Z,50
2018-06-21T08:39:33.282Z,50
2018-06-21T08:39:53.458Z,50
2018-06-21T08:40:13.665Z,50
2018-06-21T08:40:33.961Z,45
2018-06-21T08:40:54.214Z,45
2018-06-21T08:41:14.461Z,45
2018-06-21T08:41:34.683Z,45
2018-06-21T08:41:55.046Z,50
2018-06-21T08:42:15.272Z,50
2018-06-21T08:42:35.537Z,45
2018-06-21T08:42:55.715Z,45
2018-06-21T08:43:15.923Z,45
2018-06-21T08:43:36.175Z,40
2018-06-21T08:43:56.408Z,40
2018-06-21T08:44:16.554Z,50
2018-06-21T08:44:36.800Z,50
2018-06-21T08:44:57.025Z,45
2018-06-21T08:45:17.307Z,45
2018-06-21T08:45:37.483Z,45
2018-06-21T08:45:57.846Z,50
2018-06-21T08:46:18.076Z,50
2018-06-21T08:46:38.261Z,40
2018-06-21T08:46:58.444Z,35
2018-06-21T08:47:18.702Z,45
2018-06-21T08:47:38.971Z,35
2018-06-21T08:47:59.172Z,35
2018-06-21T08:48:19.343Z,30
2018-06-21T08:48:39.526Z,45
2018-06-21T08:48:59.760Z,45
2018-06-21T08:49:19.943Z,50
2018-06-21T08:49:40.161Z,50
2018-06-21T08:50:00.346Z,50
2018-06-21T08:50:20.559Z,50
2018-06-21T08:50:40.731Z,50
2018-06-21T08:51:01.117Z,45
2018-06-21T08:51:21.340Z,45
2018-06-21T08:51:41.547Z,45
2018-06-21T08:52:01.849Z,45
2018-06-21T08:52:22.015Z,45
2018-06-21T08:52:42.189Z,45
2018-06-21T08:53:02.350Z,45
2018-06-21T08:53:22.545Z,45
2018-06-21T08:53:42.712Z,45
2018-06-21T08:54:02.977Z,45
2018-06-21T08:54:23.195Z,45
2018-06-21T08:54:43.382Z,50
2018-06-21T08:55:03.594Z,50
2018-06-21T08:55:23.816Z,45
2018-06-21T08:55:44.004Z,45
2018-06-21T08:56:04.221Z,50
2018-06-21T08:56:24.375Z,50
2018-06-21T08:56:44.578Z,55
2018-06-21T08:57:04.783Z,60
2018-06-21T08:57:24.938Z,55
2018-06-21T08:57:45.096Z,60
2018-06-21T08:58:05.276Z,55
2018-06-21T08:58:25.507Z,55
2018-06-21T08:58:45.726Z,55
2018-06-21T08:59:06.029Z,50
2018-06-21T08:59:26.241Z,60
2018-06-21T08:59:46.460Z,50
2018-06-21T09:00:06.650Z,45
2018-06-21T09:00:26.840Z,50
2018-06-21T09:00:47.037Z,55
2018-06-21T09:01:07.291Z,55
2018-06-21T09:01:27.525Z,55
2018-06-21T09:01:47.954Z,55
2018-06-21T09:02:08.137Z,60
2018-06-21T09:02:28.377Z,65
2018-06-21T09:02:48.614Z,75
2018-06-21T09:03:08.829Z,70
2018-06-21T09:03:29.125Z,75
2018-06-21T09:03:49.427Z,80
2018-06-21T09:04:09.605Z,80
2018-06-21T09:04:29.830Z,80
2018-06-21T09:04:50.052Z,75
2018-06-21T09:05:10.299Z,75
2018-06-21T09:05:30.486Z,65
2018-06-21T09:05:50.678Z,75
2018-06-21T09:06:10.994Z,65
2018-06-21T09:06:31.222Z,70
2018-06-21T09:06:51.346Z,75
2018-06-21T09:07:11.569Z,75
2018-06-21T09:07:31.764Z,75
2018-06-21T09:07:51.933Z,70
2018-06-21T09:08:12.124Z,65
2018-06-21T09:08:32.279Z,60
2018-06-21T09:08:52.496Z,65
2018-06-21T09:09:12.710Z,60
2018-06-21T09:09:32.909Z,55
2018-06-21T09:09:53.134Z,55
2018-06-21T09:10:13.427Z,60
2018-06-21T09:10:33.608Z,60
2018-06-21T09:10:53.764Z,60
2018-06-21T09:11:13.969Z,55
2018-06-21T09:11:34.232Z,55
2018-06-21T09:11:54.377Z,55
2018-06-21T09:12:14.529Z,50
2018-06-21T09:12:34.709Z,50
2018-06-21T09:12:54.913Z,50
2018-06-21T09:13:15.092Z,60
2018-06-21T09:13:35.254Z,45
2018-06-21T09:13:55.539Z,55
2018-06-21T09:14:15.718Z,40
2018-06-21T09:14:35.913Z,45
2018-06-21T09:14:56.427Z,45
2018-06-21T09:15:16.677Z,45
2018-06-21T09:15:36.881Z,45
2018-06-21T09:15:57.071Z,40
2018-06-21T09:16:17.281Z,35
2018-06-21T09:16:37.542Z,35
2018-06-21T09:16:57.737Z,35
2018-06-21T09:17:18.008Z,35
2018-06-21T09:17:38.217Z,35
2018-06-21T09:17:58.387Z,40
2018-06-21T09:18:18.593Z,45
2018-06-21T09:18:38.760Z,45
2018-06-21T09:18:59.049Z,45
2018-06-21T09:19:19.248Z,45
2018-06-21T09:19:39.485Z,45
2018-06-21T09:19:59.720Z,45
2018-06-21T09:20:19.911Z,45
2018-06-21T09:20:40.152Z,45
2018-06-21T09:21:01.110Z,45
2018-06-21T09:21:21.306Z,45
2018-06-21T09:21:41.491Z,45
2018-06-21T09:22:01.709Z,40
2018-06-21T09:22:21.902Z,40
2018-06-21T09:22:42.137Z,40
2018-06-21T09:23:02.318Z,40
2018-06-21T09:23:22.476Z,40
2018-06-21T09:23:42.685Z,45
2018-06-21T09:24:02.864Z,45
2018-06-21T09:24:23.055Z,45
2018-06-21T09:24:43.235Z,45
2018-06-21T09:25:03.392Z,45
2018-06-21T09:25:23.590Z,50
2018-06-21T09:25:43.761Z,50
2018-06-21T09:26:03.952Z,50
2018-06-21T09:26:24.101Z,50
2018-06-21T09:26:44.293Z,50
2018-06-21T09:27:04.468Z,45
2018-06-21T09:27:24.677Z,50
2018-06-21T09:27:44.884Z,50
2018-06-21T09:28:05.051Z,50
2018-06-21T09:28:25.226Z,50
2018-06-21T09:28:45.384Z,50
2018-06-21T09:29:05.604Z,50
2018-06-21T09:29:25.787Z,50
2018-06-21T09:29:46.017Z,50
2018-06-21T09:30:06.226Z,50
2018-06-21T09:30:26.398Z,50
2018-06-21T09:30:46.605Z,50
2018-06-21T09:31:06.840Z,50
2018-06-21T09:31:27.016Z,45
2018-06-21T09:31:47.324Z,45
2018-06-21T09:32:07.503Z,55
2018-06-21T09:32:27.676Z,50
2018-06-21T09:32:47.862Z,50
2018-06-21T09:33:08.128Z,50
2018-06-21T09:33:28.299Z,50
2018-06-21T09:33:48.571Z,50
2018-06-21T09:34:08.784Z,50
2018-06-21T09:34:28.977Z,55
2018-06-21T09:34:49.183Z,70
2018-06-21T09:35:09.388Z,75
2018-06-21T09:35:29.637Z,65
2018-06-21T09:35:49.810Z,50
2018-06-21T09:36:10.019Z,55
2018-06-21T09:36:30.235Z,45
2018-06-21T09:36:50.436Z,45
2018-06-21T09:37:10.607Z,45
2018-06-21T09:37:30.798Z,45
2018-06-21T09:37:51.026Z,45
2018-06-21T09:38:12.233Z,45
2018-06-21T09:38:32.451Z,50
2018-06-21T09:38:52.662Z,50
2018-06-21T09:39:12.849Z,50
2018-06-21T09:39:33.061Z,50
2018-06-21T09:39:53.275Z,50
2018-06-21T09:40:13.503Z,60
2018-06-21T09:40:33.701Z,60
2018-06-21T09:40:53.961Z,65
2018-06-21T09:41:14.194Z,60
2018-06-21T09:41:34.380Z,60
2018-06-21T09:41:54.605Z,55
2018-06-21T09:42:14.869Z,55
2018-06-21T09:42:35.076Z,55
2018-06-21T09:42:55.271Z,60
2018-06-21T09:43:15.446Z,60
2018-06-21T09:43:35.636Z,60
2018-06-21T09:44:06.703Z,60
2018-06-21T09:44:26.874Z,60
2018-06-21T09:44:47.083Z,65
2018-06-21T09:45:07.264Z,60
2018-06-21T09:45:27.453Z,60
2018-06-21T09:45:47.669Z,65
2018-06-21T09:46:07.855Z,60
2018-06-21T09:46:39.132Z,60
2018-06-21T09:46:59.321Z,65
2018-06-21T09:47:19.485Z,65
2018-06-21T09:47:39.687Z,65
2018-06-21T09:47:59.912Z,65
2018-06-21T09:48:20.131Z,75
2018-06-21T09:48:40.266Z,60
2018-06-21T09:49:00.482Z,60
2018-06-21T09:49:20.665Z,65
2018-06-21T09:49:40.861Z,65
2018-06-21T09:50:01.038Z,65
2018-06-21T09:50:21.223Z,80
2018-06-21T09:50:41.461Z,70
2018-06-21T09:51:01.725Z,60
2018-06-21T09:51:21.872Z,60
2018-06-21T09:51:42.075Z,55
2018-06-21T09:52:02.280Z,55
2018-06-21T09:52:22.490Z,55
2018-06-21T09:52:42.892Z,55
2018-06-21T09:53:03.069Z,60
2018-06-21T09:53:23.269Z,70
2018-06-21T09:53:43.480Z,75
2018-06-21T09:54:03.676Z,60
2018-06-21T09:54:23.901Z,70
2018-06-21T09:54:44.100Z,65
2018-06-21T09:55:04.292Z,65
2018-06-21T09:55:24.502Z,60
2018-06-21T09:55:44.778Z,70
2018-06-21T09:56:04.936Z,70
2018-06-21T09:56:25.156Z,75
2018-06-21T09:56:45.336Z,75
2018-06-21T09:57:05.518Z,75
2018-06-21T09:57:25.692Z,75
2018-06-21T09:57:45.885Z,70
2018-06-21T09:58:06.057Z,70
2018-06-21T09:58:26.283Z,70
2018-06-21T09:58:46.463Z,70
2018-06-21T09:59:07.236Z,70
2018-06-21T09:59:27.421Z,70
2018-06-21T09:59:47.706Z,65
2018-06-21T10:00:07.923Z,60
2018-06-21T10:00:28.199Z,55
2018-06-21T10:00:48.422Z,55
2018-06-21T10:01:08.622Z,55
2018-06-21T10:01:28.778Z,50
2018-06-21T10:01:48.939Z,50
2018-06-21T10:02:09.151Z,50
2018-06-21T10:02:29.323Z,55
2018-06-21T10:02:49.519Z,50
2018-06-21T10:03:09.702Z,55
2018-06-21T10:03:29.885Z,50
2018-06-21T10:03:50.084Z,50
2018-06-21T10:04:10.366Z,50
2018-06-21T10:04:30.531Z,50
2018-06-21T10:04:50.767Z,50
2018-06-21T10:05:11.011Z,50
2018-06-21T10:05:31.780Z,50
2018-06-21T10:05:51.996Z,50
2018-06-21T10:06:12.258Z,50
2018-06-21T10:06:32.518Z,50
2018-06-21T10:06:52.834Z,55
2018-06-21T10:07:13.277Z,50
2018-06-21T10:07:33.282Z,50
2018-06-21T10:07:53.464Z,55
2018-06-21T10:08:13.710Z,55
2018-06-21T10:08:33.936Z,55
2018-06-21T10:08:54.228Z,55
2018-06-21T10:09:14.417Z,55
2018-06-21T10:09:34.585Z,55
2018-06-21T10:09:54.859Z,55
2018-06-21T10:10:15.122Z,50
2018-06-21T10:10:35.317Z,50
2018-06-21T10:10:55.512Z,50
2018-06-21T10:11:15.753Z,50
2018-06-21T10:11:36.031Z,50
2018-06-21T10:11:56.215Z,50
2018-06-21T10:12:16.441Z,55
2018-06-21T10:12:36.638Z,55
2018-06-21T10:12:56.945Z,60
2018-06-21T10:13:17.171Z,60
2018-06-21T10:13:37.352Z,60
2018-06-21T10:13:57.533Z,60
2018-06-21T10:14:17.708Z,55
2018-06-21T10:14:37.884Z,55
2018-06-21T10:14:58.151Z,55
2018-06-21T10:15:18.333Z,50
2018-06-21T10:15:38.541Z,50
2018-06-21T10:15:58.737Z,50
2018-06-21T10:16:18.988Z,50
2018-06-21T10:16:39.352Z,50
2018-06-21T10:16:59.573Z,50
2018-06-21T10:17:19.825Z,55
2018-06-21T10:17:40.121Z,50
2018-06-21T10:18:00.325Z,50
2018-06-21T10:18:20.679Z,50
2018-06-21T10:18:40.909Z,50
2018-06-21T10:19:01.106Z,50
2018-06-21T10:19:21.284Z,50
2018-06-21T10:19:41.526Z,50
2018-06-21T10:20:01.697Z,50
2018-06-21T10:20:21.989Z,55
2018-06-21T10:20:42.150Z,60
2018-06-21T10:21:02.352Z,65
2018-06-21T10:21:22.510Z,60
2018-06-21T10:21:42.838Z,60
2018-06-21T10:22:03.050Z,60
2018-06-21T10:22:23.209Z,55
2018-06-21T10:22:43.385Z,55
2018-06-21T10:23:03.723Z,55
2018-06-21T10:23:23.950Z,60
2018-06-21T10:23:44.165Z,60
2018-06-21T10:24:04.385Z,60
2018-06-21T10:24:24.627Z,55
2018-06-21T10:24:44.886Z,55
2018-06-21T10:25:05.376Z,55
2018-06-21T10:25:25.700Z,60
2018-06-21T10:25:46.917Z,60
2018-06-21T10:26:07.806Z,60
2018-06-21T10:26:28.213Z,60
2018-06-21T10:26:48.590Z,65
2018-06-21T10:27:08.872Z,60
2018-06-21T10:27:29.143Z,65
2018-06-21T10:27:49.329Z,70
2018-06-21T10:28:09.596Z,70
2018-06-21T10:28:29.866Z,70
2018-06-21T10:28:50.065Z,70
2018-06-21T10:29:10.280Z,60
2018-06-21T10:29:30.484Z,70
2018-06-21T10:29:50.788Z,75
2018-06-21T10:30:11.097Z,70
2018-06-21T10:30:31.286Z,70
2018-06-21T10:30:51.537Z,65
2018-06-21T10:31:11.809Z,70
2018-06-21T10:31:32.012Z,60
2018-06-21T10:31:52.862Z,55
2018-06-21T10:32:13.181Z,55
2018-06-21T10:32:33.509Z,50
2018-06-21T10:32:53.776Z,55
2018-06-21T10:33:14.043Z,55
2018-06-21T10:33:34.307Z,55
2018-06-21T10:33:54.614Z,55
2018-06-21T10:34:14.816Z,65
2018-06-21T10:34:35.118Z,70
2018-06-21T10:34:55.370Z,75
2018-06-21T10:35:15.524Z,65
2018-06-21T10:35:35.780Z,65